Time;durP1;ratioP1;P1;durP2;ratioP2;P2;SDS_P1;SDS_P2;PMS_P1;PMS_P2;Temp;Humidity;BMP_temperature;BMP_pressure;BME280_temperature;BME280_humidity;BME280_pressure;Samples;Min_cycle;Max_cycle;Signal;HPM_P1;HPM_P2
2023/03/23 00:02:17;;;;;;;70.65;37.38;;;;;;;;;;6248499;28;19955;-75
2023/03/23 00:05:18;;;;;;;86.90;41.33;;;;;;;;;;6263038;28;20776;-75
2023/03/23 00:08:22;;;;;;;87.20;40.23;;;;;;;;;;6264265;28;20364;-75
2023/03/23 00:11:23;;;;;;;78.25;39.30;;;;;;;;;;6264417;28;20471;-74
2023/03/23 00:14:24;;;;;;;79.80;41.08;;;;;;;;;;6265771;28;20398;-74
2023/03/23 00:17:25;;;;;;;82.25;39.38;;;;;;;;;;6262864;28;20028;-75
2023/03/23 00:20:29;;;;;;;74.13;38.87;;;;;;;;;;6259902;28;20052;-75
2023/03/23 00:23:29;;;;;;;79.35;42.15;;;;;;;;;;6265933;28;20025;-74
2023/03/23 00:26:33;;;;;;;83.93;43.40;;;;;;;;;;6270831;28;20510;-74
2023/03/23 00:29:33;;;;;;;79.20;42.47;;;;;;;;;;6265452;28;20029;-74
2023/03/23 00:32:33;;;;;;;78.93;41.73;;;;;;;;;;6267360;28;20028;-74
2023/03/23 00:35:35;;;;;;;88.70;42.63;;;;;;;;;;6271622;28;20418;-74
2023/03/23 00:38:36;;;;;;;95.97;48.70;;;;;;;;;;6268847;28;20144;-75
2023/03/23 00:41:36;;;;;;;89.63;45.87;;;;;;;;;;6267637;28;20076;-74
2023/03/23 00:44:37;;;;;;;84.07;43.93;;;;;;;;;;6267490;28;20071;-75
2023/03/23 00:47:37;;;;;;;95.87;46.23;;;;;;;;;;6270126;28;20029;-74
2023/03/23 00:50:38;;;;;;;83.53;46.17;;;;;;;;;;6269472;28;20021;-75
2023/03/23 00:53:39;;;;;;;84.17;40.27;;;;;;;;;;6249714;28;20502;-74
2023/03/23 00:56:39;;;;;;;81.57;37.93;;;;;;;;;;6268464;28;20017;-75
2023/03/23 00:59:40;;;;;;;75.60;36.60;;;;;;;;;;6269218;28;20025;-74
2023/03/23 01:02:40;;;;;;;102.40;49.63;;;;;;;;;;6270012;28;20013;-74
2023/03/23 01:05:40;;;;;;;92.70;42.50;;;;;;;;;;6265538;28;20399;-74
2023/03/23 01:08:45;;;;;;;80.60;40.90;;;;;;;;;;6271313;28;20025;-75
2023/03/23 01:11:45;;;;;;;86.80;42.13;;;;;;;;;;6267644;28;20167;-74
2023/03/23 01:14:47;;;;;;;89.87;42.27;;;;;;;;;;6269223;28;20021;-74
2023/03/23 01:17:47;;;;;;;;;;;;;;;;;;6253114;28;20021;-74
2023/03/23 01:20:48;;;;;;;93.97;45.27;;;;;;;;;;6265130;28;19998;-74
2023/03/23 01:23:48;;;;;;;93.50;47.90;;;;;;;;;;6269111;28;20346;-75
2023/03/23 01:26:48;;;;;;;101.57;46.37;;;;;;;;;;6266901;28;20025;-74
2023/03/23 01:29:49;;;;;;;89.32;42.83;;;;;;;;;;6249679;28;20025;-74
2023/03/23 01:32:49;;;;;;;86.33;44.77;;;;;;;;;;6265144;28;20060;-74
2023/03/23 01:35:50;;;;;;;106.30;48.63;;;;;;;;;;6265105;28;20082;-74
2023/03/23 01:38:50;;;;;;;100.43;48.63;;;;;;;;;;6249820;28;20399;-74
2023/03/23 01:41:50;;;;;;;78.57;44.50;;;;;;;;;;6266645;28;20475;-74
2023/03/23 01:44:50;;;;;;;64.37;35.80;;;;;;;;;;6267169;28;20437;-74
2023/03/23 01:48:03;;;;;;;103.93;46.67;;;;;;;;;;6266567;28;20138;-74
2023/03/23 01:51:06;;;;;;;74.40;39.30;;;;;;;;;;6248619;28;20078;-75
2023/03/23 01:54:10;;;;;;;86.10;41.13;;;;;;;;;;6264165;28;20068;-74
2023/03/23 01:57:17;;;;;;;83.55;42.15;;;;;;;;;;6269018;28;20028;-75
2023/03/23 02:00:18;;;;;;;81.70;41.90;;;;;;;;;;6265480;28;20021;-74
2023/03/23 02:03:19;;;;;;;75.33;37.20;;;;;;;;;;6268229;28;20491;-74
2023/03/23 02:06:20;;;;;;;85.30;41.67;;;;;;;;;;6266704;28;20072;-74
2023/03/23 02:09:21;;;;;;;78.53;40.37;;;;;;;;;;6250468;28;20471;-74
2023/03/23 02:12:21;;;;;;;58.95;31.45;;;;;;;;;;6264298;28;20029;-74
2023/03/23 02:15:22;;;;;;;72.40;36.73;;;;;;;;;;6264479;28;20025;-74
2023/03/23 02:18:25;;;;;;;72.03;36.60;;;;;;;;;;6268206;28;20024;-74
2023/03/23 02:21:26;;;;;;;66.10;33.80;;;;;;;;;;6264034;28;20501;-75
2023/03/23 02:24:31;;;;;;;77.77;32.10;;;;;;;;;;6267263;28;20048;-74
2023/03/23 02:27:41;;;;;;;54.53;28.48;;;;;;;;;;6264908;28;20048;-75
2023/03/23 02:30:52;;;;;;;57.08;31.45;;;;;;;;;;6262436;28;20025;-74
2023/03/23 02:33:58;;;;;;;53.90;28.58;;;;;;;;;;6264524;28;20029;-74
2023/03/23 02:37:03;;;;;;;62.00;28.33;;;;;;;;;;6267889;28;20109;-75
2023/03/23 02:40:13;;;;;;;62.28;31.58;;;;;;;;;;6263873;28;20106;-74
2023/03/23 02:43:15;;;;;;;48.25;28.23;;;;;;;;;;6265633;28;20111;-74
2023/03/23 02:46:15;;;;;;;54.03;29.20;;;;;;;;;;6261839;28;20028;-74
2023/03/23 02:49:17;;;;;;;42.57;27.57;;;;;;;;;;6247742;28;20056;-74
2023/03/23 02:52:22;;;;;;;43.80;26.25;;;;;;;;;;6263809;28;20044;-75
2023/03/23 02:55:25;;;;;;;56.75;29.58;;;;;;;;;;6264417;28;20494;-74
2023/03/23 02:58:27;;;;;;;49.97;29.75;;;;;;;;;;6267400;28;20036;-75
2023/03/23 03:01:33;;;;;;;52.30;29.92;;;;;;;;;;6267224;28;20067;-74
2023/03/23 03:04:34;;;;;;;51.78;27.80;;;;;;;;;;6262059;28;20513;-75
2023/03/23 03:07:54;;;;;;;51.33;30.70;;;;;;;;;;6267944;28;20025;-75
2023/03/23 03:10:57;;;;;;;65.43;33.30;;;;;;;;;;6265467;28;20330;-75
2023/03/23 03:14:00;;;;;;;56.03;32.03;;;;;;;;;;6264100;28;20029;-75
2023/03/23 03:17:02;;;;;;;58.88;29.70;;;;;;;;;;6266411;28;20029;-75
2023/03/23 03:20:07;;;;;;;57.25;28.65;;;;;;;;;;6265369;28;20013;-74
2023/03/23 03:23:12;;;;;;;49.92;31.02;;;;;;;;;;6267099;28;20518;-74
2023/03/23 03:26:16;;;;;;;45.35;27.80;;;;;;;;;;6266819;28;20076;-75
2023/03/23 03:29:18;;;;;;;51.85;29.55;;;;;;;;;;6264700;28;20457;-74
2023/03/23 03:32:22;;;;;;;48.72;27.77;;;;;;;;;;6264562;28;20154;-74
2023/03/23 03:35:23;;;;;;;47.35;27.42;;;;;;;;;;6266537;28;20116;-73
2023/03/23 03:38:24;;;;;;;47.20;25.53;;;;;;;;;;6262207;28;20499;-73
2023/03/23 03:41:24;;;;;;;42.23;21.87;;;;;;;;;;6266447;28;20472;-73
2023/03/23 03:44:25;;;;;;;39.57;24.30;;;;;;;;;;6265619;28;20116;-74
2023/03/23 03:47:26;;;;;;;49.03;25.97;;;;;;;;;;6248078;28;20024;-73
2023/03/23 03:50:27;;;;;;;45.20;26.73;;;;;;;;;;6266785;28;20490;-74
2023/03/23 03:53:28;;;;;;;43.73;24.00;;;;;;;;;;6265961;28;20033;-74
2023/03/23 03:56:28;;;;;;;46.43;27.40;;;;;;;;;;6267464;28;20173;-74
2023/03/23 03:59:30;;;;;;;50.63;26.17;;;;;;;;;;6264759;28;20491;-74
2023/03/23 04:02:30;;;;;;;44.35;25.73;;;;;;;;;;6265007;28;20375;-74
2023/03/23 04:05:30;;;;;;;53.03;25.93;;;;;;;;;;6264695;28;20104;-74
2023/03/23 04:08:31;;;;;;;47.10;26.07;;;;;;;;;;6246272;28;20055;-75
2023/03/23 04:11:32;;;;;;;51.43;25.77;;;;;;;;;;6263484;28;20549;-74
2023/03/23 04:14:32;;;;;;;49.00;27.07;;;;;;;;;;6246924;28;20029;-74
2023/03/23 04:17:33;;;;;;;49.03;26.60;;;;;;;;;;6265222;28;20379;-74
2023/03/23 04:20:34;;;;;;;48.20;27.77;;;;;;;;;;6261036;28;20036;-74
2023/03/23 04:23:35;;;;;;;49.43;29.50;;;;;;;;;;6246653;28;20016;-74
2023/03/23 04:26:35;;;;;;;49.83;26.87;;;;;;;;;;6264732;28;20057;-74
2023/03/23 04:29:36;;;;;;;48.97;26.33;;;;;;;;;;6261864;28;20029;-74
2023/03/23 04:32:40;;;;;;;43.33;24.87;;;;;;;;;;6264012;28;20029;-74
2023/03/23 04:35:41;;;;;;;42.33;24.42;;;;;;;;;;6264392;28;20021;-73
2023/03/23 04:38:42;;;;;;;50.38;27.88;;;;;;;;;;6246312;28;20032;-74
2023/03/23 04:41:43;;;;;;;46.97;29.43;;;;;;;;;;6264738;28;20104;-74
2023/03/23 04:44:53;;;;;;;43.63;23.88;;;;;;;;;;6263780;28;20024;-73
2023/03/23 04:47:57;;;;;;;48.33;26.15;;;;;;;;;;6246808;28;20029;-73
2023/03/23 04:50:59;;;;;;;44.38;24.95;;;;;;;;;;6264807;28;20032;-74
2023/03/23 04:53:59;;;;;;;43.92;24.60;;;;;;;;;;6265199;28;20352;-74
2023/03/23 04:57:00;;;;;;;44.37;25.03;;;;;;;;;;6247543;28;20087;-74
2023/03/23 05:00:00;;;;;;;38.90;22.45;;;;;;;;;;6262974;28;20113;-74
2023/03/23 05:03:00;;;;;;;38.47;24.23;;;;;;;;;;6260865;28;20028;-74
2023/03/23 05:06:02;;;;;;;37.40;23.67;;;;;;;;;;6263414;28;20028;-74
2023/03/23 05:09:03;;;;;;;57.35;27.80;;;;;;;;;;6245504;28;20029;-74
2023/03/23 05:12:07;;;;;;;40.00;23.73;;;;;;;;;;6266257;28;20075;-73
2023/03/23 05:15:08;;;;;;;41.28;22.15;;;;;;;;;;6264022;28;20032;-73
2023/03/23 05:18:09;;;;;;;47.72;24.90;;;;;;;;;;6264717;28;20383;-74
2023/03/23 05:21:10;;;;;;;45.92;26.27;;;;;;;;;;6264643;28;20391;-73
2023/03/23 05:24:10;;;;;;;45.10;27.07;;;;;;;;;;6251748;28;20099;-73
2023/03/23 05:27:11;;;;;;;57.97;31.77;;;;;;;;;;6265089;28;20069;-73
2023/03/23 05:30:15;;;;;;;50.37;30.07;;;;;;;;;;6265711;28;20052;-74
2023/03/23 05:33:15;;;;;;;39.10;26.83;;;;;;;;;;6269041;28;20067;-74
2023/03/23 05:36:15;;;;;;;40.35;21.42;;;;;;;;;;6267729;28;20032;-73
2023/03/23 05:39:17;;;;;;;41.03;24.70;;;;;;;;;;6266408;28;20090;-73
2023/03/23 05:42:17;;;;;;;47.33;22.25;;;;;;;;;;6267804;28;20462;-73
2023/03/23 05:45:17;;;;;;;39.00;19.47;;;;;;;;;;6251034;28;20029;-73
2023/03/23 05:48:18;;;;;;;40.97;24.40;;;;;;;;;;6268058;28;20028;-73
2023/03/23 05:51:18;;;;;;;44.17;22.63;;;;;;;;;;6251103;28;20063;-74
2023/03/23 05:54:18;;;;;;;39.60;22.43;;;;;;;;;;6266757;28;20032;-73
2023/03/23 05:57:21;;;;;;;43.43;23.67;;;;;;;;;;6269547;28;20162;-73
2023/03/23 06:00:23;;;;;;;37.63;22.67;;;;;;;;;;6266744;28;20021;-73
2023/03/23 06:03:24;;;;;;;33.28;22.65;;;;;;;;;;6266075;28;20024;-73
2023/03/23 06:06:25;;;;;;;35.78;22.35;;;;;;;;;;6249208;28;20108;-73
2023/03/23 06:09:25;;;;;;;36.20;23.13;;;;;;;;;;6263776;28;20032;-73
2023/03/23 06:12:25;;;;;;;35.17;22.40;;;;;;;;;;6250728;28;20032;-73
2023/03/23 06:15:28;;;;;;;34.23;21.50;;;;;;;;;;6267606;28;20037;-74
2023/03/23 06:18:29;;;;;;;35.42;20.75;;;;;;;;;;6268279;28;20328;-73
2023/03/23 06:21:30;;;;;;;38.50;23.97;;;;;;;;;;6246938;28;20057;-74
2023/03/23 06:24:32;;;;;;;31.13;20.30;;;;;;;;;;6266594;28;20200;-73
2023/03/23 06:27:32;;;;;;;;;;;;;;;;;;6267782;28;20021;-74
2023/03/23 06:30:33;;;;;;;35.25;20.40;;;;;;;;;;6268686;28;19913;-73
2023/03/23 06:33:34;;;;;;;37.60;21.13;;;;;;;;;;6264952;28;20033;-74
2023/03/23 06:36:34;;;;;;;33.38;21.42;;;;;;;;;;6266334;28;20023;-73
2023/03/23 06:39:37;;;;;;;35.87;22.23;;;;;;;;;;6268697;28;20020;-74
2023/03/23 06:42:38;;;;;;;30.50;20.02;;;;;;;;;;6262713;28;20029;-75
2023/03/23 06:45:39;;;;;;;48.72;22.60;;;;;;;;;;6253248;28;20153;-74
2023/03/23 06:48:39;;;;;;;53.33;25.07;;;;;;;;;;6263325;28;20135;-75
2023/03/23 06:51:39;;;;;;;36.73;19.83;;;;;;;;;;6263174;28;20016;-73
2023/03/23 06:54:39;;;;;;;34.63;18.25;;;;;;;;;;6261268;28;20028;-73
2023/03/23 06:57:41;;;;;;;41.30;19.07;;;;;;;;;;6267285;28;20025;-73
2023/03/23 07:00:41;;;;;;;33.13;17.80;;;;;;;;;;6266102;28;20013;-74
2023/03/23 07:03:41;;;;;;;30.07;18.90;;;;;;;;;;6265353;28;20048;-73
2023/03/23 07:06:42;;;;;;;32.53;20.17;;;;;;;;;;6266253;28;20029;-73
2023/03/23 07:09:42;;;;;;;30.90;19.57;;;;;;;;;;6260537;28;20059;-73
2023/03/23 07:12:42;;;;;;;32.90;17.63;;;;;;;;;;6248720;28;20643;-74
2023/03/23 07:15:43;;;;;;;23.77;15.63;;;;;;;;;;6246019;28;20087;-73
2023/03/23 07:18:44;;;;;;;34.47;14.95;;;;;;;;;;6263353;28;20021;-73
2023/03/23 07:21:44;;;;;;;23.77;14.53;;;;;;;;;;6265401;28;20487;-73
2023/03/23 07:24:45;;;;;;;32.00;15.43;;;;;;;;;;6265082;28;20513;-73
2023/03/23 07:27:45;;;;;;;32.27;15.13;;;;;;;;;;6265338;28;20023;-73
2023/03/23 07:30:46;;;;;;;27.23;14.63;;;;;;;;;;6266715;28;20083;-73
2023/03/23 07:33:46;;;;;;;22.37;13.07;;;;;;;;;;6264112;28;20051;-73
2023/03/23 07:36:46;;;;;;;21.63;11.40;;;;;;;;;;6245237;28;20040;-74
2023/03/23 07:39:47;;;;;;;20.47;12.33;;;;;;;;;;6261164;28;20475;-74
2023/03/23 07:42:51;;;;;;;21.83;12.10;;;;;;;;;;6262557;28;20804;-74
2023/03/23 07:45:52;;;;;;;19.98;13.25;;;;;;;;;;6260568;28;20040;-74
2023/03/23 07:48:52;;;;;;;20.80;12.40;;;;;;;;;;6262552;28;20031;-74
2023/03/23 07:51:53;;;;;;;21.60;12.83;;;;;;;;;;6259319;28;20112;-72
2023/03/23 07:54:53;;;;;;;26.03;14.90;;;;;;;;;;6261998;28;20032;-73
2023/03/23 07:57:53;;;;;;;27.40;15.03;;;;;;;;;;6263241;28;20025;-74
2023/03/23 08:00:56;;;;;;;24.33;14.30;;;;;;;;;;6256368;28;20147;-73
2023/03/23 08:03:57;;;;;;;23.40;13.23;;;;;;;;;;6264641;28;20027;-73
2023/03/23 08:06:57;;;;;;;21.00;13.20;;;;;;;;;;6264451;28;20375;-73
2023/03/23 08:09:58;;;;;;;23.97;12.87;;;;;;;;;;6258285;28;20028;-73
2023/03/23 08:12:59;;;;;;;22.97;13.57;;;;;;;;;;6264531;28;20197;-73
2023/03/23 08:16:03;;;;;;;22.17;12.98;;;;;;;;;;6247702;28;20078;-73
2023/03/23 08:19:05;;;;;;;23.05;13.27;;;;;;;;;;6265044;28;20032;-73
2023/03/23 08:22:05;;;;;;;;;;;;;;;;;;6263429;28;20540;-73
2023/03/23 08:25:06;;;;;;;18.42;11.55;;;;;;;;;;6265737;28;19924;-73
2023/03/23 08:28:07;;;;;;;19.60;12.32;;;;;;;;;;6246437;28;20033;-73
2023/03/23 08:31:09;;;;;;;19.27;11.63;;;;;;;;;;6263978;28;20494;-73
2023/03/23 08:34:10;;;;;;;17.63;11.63;;;;;;;;;;6266903;28;20021;-73
2023/03/23 08:37:11;;;;;;;15.97;9.83;;;;;;;;;;6261995;28;20041;-73
2023/03/23 08:40:13;;;;;;;14.40;10.55;;;;;;;;;;6263126;28;20059;-73
2023/03/23 08:43:15;;;;;;;15.07;9.02;;;;;;;;;;6265502;28;20128;-73
2023/03/23 08:46:15;;;;;;;14.02;8.32;;;;;;;;;;6248152;28;20234;-73
2023/03/23 08:49:15;;;;;;;15.27;6.90;;;;;;;;;;6268656;28;20013;-73
2023/03/23 08:52:15;;;;;;;15.57;8.90;;;;;;;;;;6268660;28;20514;-74
2023/03/23 08:55:17;;;;;;;12.25;6.90;;;;;;;;;;6266406;28;20531;-74
2023/03/23 08:58:17;;;;;;;12.50;6.53;;;;;;;;;;6270133;28;20025;-74
2023/03/23 09:01:18;;;;;;;13.87;6.77;;;;;;;;;;6267886;28;20023;-73
2023/03/23 09:04:18;;;;;;;10.93;5.60;;;;;;;;;;6267605;28;20075;-74
2023/03/23 09:07:18;;;;;;;10.03;6.07;;;;;;;;;;6249038;28;20033;-74
2023/03/23 09:10:19;;;;;;;14.05;5.63;;;;;;;;;;6266210;28;20061;-73
2023/03/23 09:13:20;;;;;;;12.68;5.97;;;;;;;;;;6249734;28;20033;-74
2023/03/23 09:16:20;;;;;;;10.70;5.20;;;;;;;;;;6269519;28;20471;-74
2023/03/23 09:19:20;;;;;;;9.60;4.83;;;;;;;;;;6267994;28;20017;-74
2023/03/23 09:22:23;;;;;;;14.20;6.00;;;;;;;;;;6267378;28;20024;-74
2023/03/23 09:25:26;;;;;;;11.88;5.15;;;;;;;;;;6264507;28;20057;-74
2023/03/23 09:28:26;;;;;;;10.32;5.05;;;;;;;;;;6263295;28;20028;-74
2023/03/23 09:31:27;;;;;;;7.87;4.70;;;;;;;;;;6248018;28;20045;-74
2023/03/23 09:34:29;;;;;;;8.13;4.00;;;;;;;;;;6267067;28;20037;-74
2023/03/23 09:37:29;;;;;;;10.13;4.88;;;;;;;;;;6267087;28;20033;-74
2023/03/23 09:40:43;;;;;;;9.02;4.88;;;;;;;;;;6267584;28;20032;-74
2023/03/23 09:43:54;;;;;;;9.00;4.65;;;;;;;;;;6263463;28;20024;-74
2023/03/23 09:47:10;;;;;;;10.57;4.40;;;;;;;;;;6247258;28;20082;-74
2023/03/23 09:50:16;;;;;;;9.65;4.63;;;;;;;;;;6265650;28;20028;-74
2023/03/23 09:53:19;;;;;;;7.15;3.97;;;;;;;;;;6263629;28;20115;-74
2023/03/23 09:56:20;;;;;;;8.52;4.65;;;;;;;;;;6265856;28;20542;-74
2023/03/23 09:59:20;;;;;;;;;;;;;;;;;;6266029;28;20029;-74
2023/03/23 10:02:29;;;;;;;8.13;4.22;;;;;;;;;;6265474;28;19955;-72
2023/03/23 10:05:39;;;;;;;11.90;5.28;;;;;;;;;;6268538;28;20471;-74
2023/03/23 10:08:43;;;;;;;9.95;4.20;;;;;;;;;;6263101;28;20017;-74
2023/03/23 10:11:54;;;;;;;10.25;4.18;;;;;;;;;;6264436;28;20060;-73
2023/03/23 10:15:14;;;;;;;8.73;4.97;;;;;;;;;;6267806;28;20017;-74
2023/03/23 10:18:23;;;;;;;9.10;5.18;;;;;;;;;;6263977;28;20056;-74
2023/03/23 10:21:24;;;;;;;12.15;5.55;;;;;;;;;;6265536;28;20400;-73
2023/03/23 10:24:33;;;;;;;9.00;4.85;;;;;;;;;;6249461;28;20129;-74
2023/03/23 10:27:38;;;;;;;11.60;5.63;;;;;;;;;;6266619;28;20028;-74
2023/03/23 10:30:48;;;;;;;15.40;6.60;;;;;;;;;;6262715;28;20056;-74
2023/03/23 10:33:50;;;;;;;9.07;3.97;;;;;;;;;;6266534;28;20033;-73
2023/03/23 10:36:53;;;;;;;12.75;5.72;;;;;;;;;;6264324;28;20561;-74
2023/03/23 10:39:55;;;;;;;19.05;6.05;;;;;;;;;;6266091;28;20619;-74
2023/03/23 10:42:56;;;;;;;16.58;5.35;;;;;;;;;;6263010;28;20499;-74
2023/03/23 10:46:04;;;;;;;8.93;4.15;;;;;;;;;;6265900;28;20060;-74
2023/03/23 10:49:06;;;;;;;6.97;3.80;;;;;;;;;;6268263;28;20119;-74
2023/03/23 10:52:12;;;;;;;8.30;3.80;;;;;;;;;;6265994;28;20490;-74
2023/03/23 10:55:16;;;;;;;8.32;4.30;;;;;;;;;;6263827;28;20028;-74
2023/03/23 10:58:24;;;;;;;8.93;3.50;;;;;;;;;;6266449;28;20074;-73
2023/03/23 11:01:29;;;;;;;6.75;2.78;;;;;;;;;;6265808;28;20021;-75
2023/03/23 11:04:31;;;;;;;10.73;3.67;;;;;;;;;;6265398;28;20067;-74
2023/03/23 11:07:32;;;;;;;8.57;3.55;;;;;;;;;;6265211;28;20025;-75
2023/03/23 11:10:37;;;;;;;7.93;4.13;;;;;;;;;;6264485;28;20489;-75
2023/03/23 11:13:45;;;;;;;7.35;3.95;;;;;;;;;;6265739;28;20499;-74
2023/03/23 11:16:50;;;;;;;6.32;2.80;;;;;;;;;;6263229;28;20065;-72
2023/03/23 11:19:51;;;;;;;10.45;4.28;;;;;;;;;;6247055;28;20027;-75
2023/03/23 11:22:52;;;;;;;8.77;3.53;;;;;;;;;;6266268;28;20020;-75
2023/03/23 11:26:00;;;;;;;5.20;2.70;;;;;;;;;;6261409;28;20517;-73
2023/03/23 11:29:10;;;;;;;6.97;3.10;;;;;;;;;;6265184;28;20529;-73
2023/03/23 11:32:12;;;;;;;9.30;3.33;;;;;;;;;;6247733;28;20481;-73
2023/03/23 11:35:17;;;;;;;9.10;4.38;;;;;;;;;;6263732;28;20491;-73
2023/03/23 11:38:19;;;;;;;8.80;3.63;;;;;;;;;;6265274;28;20033;-73
2023/03/23 11:41:22;;;;;;;8.43;3.25;;;;;;;;;;6264303;28;20056;-73
2023/03/23 11:44:23;;;;;;;9.18;3.35;;;;;;;;;;6265762;28;20051;-73
2023/03/23 11:47:27;;;;;;;7.00;3.10;;;;;;;;;;6266027;28;20029;-74
2023/03/23 11:50:31;;;;;;;7.28;3.28;;;;;;;;;;6264831;28;20477;-74
2023/03/23 11:53:53;;;;;;;8.07;3.63;;;;;;;;;;6247205;28;20410;-74
2023/03/23 11:56:56;;;;;;;7.35;2.90;;;;;;;;;;6265804;28;20021;-74
2023/03/23 12:00:00;;;;;;;9.52;3.88;;;;;;;;;;6263221;28;20427;-74
2023/03/23 12:03:19;;;;;;;9.43;4.00;;;;;;;;;;6267193;28;20138;-74
2023/03/23 12:06:28;;;;;;;9.02;4.13;;;;;;;;;;6265505;28;20495;-73
2023/03/23 12:09:39;;;;;;;7.57;3.35;;;;;;;;;;6262454;28;20116;-73
2023/03/23 12:12:48;;;;;;;6.85;3.30;;;;;;;;;;6264679;28;20025;-74
2023/03/23 12:15:59;;;;;;;7.70;2.85;;;;;;;;;;6266352;28;20021;-74
2023/03/23 12:19:08;;;;;;;14.40;4.03;;;;;;;;;;6263002;28;20031;-74
2023/03/23 12:22:24;;;;;;;10.57;3.28;;;;;;;;;;6252744;28;20107;-74
2023/03/23 12:25:27;;;;;;;7.03;3.08;;;;;;;;;;6268404;28;20048;-74
2023/03/23 12:28:36;;;;;;;7.82;3.53;;;;;;;;;;6269950;28;20056;-74
2023/03/23 12:32:00;;;;;;;7.93;3.83;;;;;;;;;;6267591;28;20476;-74
2023/03/23 12:35:16;;;;;;;9.65;4.05;;;;;;;;;;6265285;28;20416;-74
2023/03/23 12:38:31;;;;;;;5.30;2.47;;;;;;;;;;6251667;28;20056;-74
2023/03/23 12:41:35;;;;;;;6.75;3.33;;;;;;;;;;6250275;28;20486;-74
2023/03/23 12:44:46;;;;;;;8.80;3.30;;;;;;;;;;6269856;28;20044;-74
2023/03/23 12:48:01;;;;;;;5.55;2.63;;;;;;;;;;6264748;28;20029;-74
2023/03/23 12:51:10;;;;;;;7.00;3.17;;;;;;;;;;6264331;28;20487;-74
2023/03/23 12:54:31;;;;;;;5.68;3.20;;;;;;;;;;6266130;28;20467;-74
2023/03/23 12:57:32;;;;;;;5.72;2.90;;;;;;;;;;6264530;28;20040;-74
2023/03/23 13:00:50;;;;;;;6.07;3.47;;;;;;;;;;6267983;28;20096;-74
2023/03/23 13:03:56;;;;;;;4.93;2.38;;;;;;;;;;6269496;28;20055;-74
2023/03/23 13:06:58;;;;;;;6.88;2.45;;;;;;;;;;6265262;28;20036;-75
2023/03/23 13:10:03;;;;;;;6.47;3.17;;;;;;;;;;6268464;28;20363;-75
2023/03/23 13:13:10;;;;;;;10.00;3.70;;;;;;;;;;6249325;28;20025;-75
2023/03/23 13:16:20;;;;;;;9.38;3.88;;;;;;;;;;6248176;28;20278;-75
2023/03/23 13:19:41;;;;;;;8.27;3.17;;;;;;;;;;6269040;28;20328;-74
2023/03/23 13:22:42;;;;;;;;;;;;;;;;;;6270057;28;20473;-73
2023/03/23 13:25:54;;;;;;;8.43;4.03;;;;;;;;;;6267023;28;20386;-74
2023/03/23 13:28:57;;;;;;;6.45;3.15;;;;;;;;;;6268350;28;20039;-73
2023/03/23 13:32:05;;;;;;;10.18;4.38;;;;;;;;;;6265317;28;20029;-74
2023/03/23 13:35:11;;;;;;;7.15;3.30;;;;;;;;;;6267950;28;20049;-74
2023/03/23 13:38:14;;;;;;;5.45;2.80;;;;;;;;;;6251032;28;20039;-74
2023/03/23 13:41:16;;;;;;;5.93;3.17;;;;;;;;;;6265510;28;20023;-74
2023/03/23 13:44:17;;;;;;;;;;;;;;;;;;6268678;28;20036;-75
2023/03/23 13:47:23;;;;;;;6.33;2.83;;;;;;;;;;6267470;28;19963;-73
2023/03/23 13:50:23;;;;;;;7.72;3.10;;;;;;;;;;6266648;28;20502;-74
2023/03/23 13:53:42;;;;;;;34.13;3.97;;;;;;;;;;6265667;28;20025;-74
2023/03/23 13:56:42;;;;;;;9.55;4.07;;;;;;;;;;6250143;28;20544;-74
2023/03/23 13:59:47;;;;;;;8.27;3.40;;;;;;;;;;6265133;28;20009;-74
2023/03/23 14:02:48;;;;;;;9.18;3.50;;;;;;;;;;6263457;28;20095;-74
2023/03/23 14:05:50;;;;;;;8.52;4.20;;;;;;;;;;6262917;28;20069;-73
2023/03/23 14:08:52;;;;;;;7.85;3.40;;;;;;;;;;6264261;28;20032;-74
2023/03/23 14:11:56;;;;;;;6.70;3.40;;;;;;;;;;6267236;28;20550;-74
2023/03/23 14:15:01;;;;;;;10.63;4.40;;;;;;;;;;6264745;28;20039;-75
2023/03/23 14:18:04;;;;;;;8.07;3.30;;;;;;;;;;6265021;28;20032;-74
2023/03/23 14:21:06;;;;;;;9.88;4.28;;;;;;;;;;6246717;28;20045;-75
2023/03/23 14:24:09;;;;;;;8.65;4.65;;;;;;;;;;6262947;28;20059;-75
2023/03/23 14:27:10;;;;;;;7.60;4.13;;;;;;;;;;6246490;28;20025;-75
2023/03/23 14:30:18;;;;;;;8.87;4.13;;;;;;;;;;6265384;28;20064;-74
2023/03/23 14:33:19;;;;;;;7.68;3.70;;;;;;;;;;6245829;28;20102;-74
2023/03/23 14:36:20;;;;;;;7.88;3.45;;;;;;;;;;6263451;28;20020;-75
2023/03/23 14:39:23;;;;;;;6.97;3.50;;;;;;;;;;6265786;28;20060;-75
2023/03/23 14:42:28;;;;;;;10.57;4.10;;;;;;;;;;6264904;28;20017;-75
2023/03/23 14:45:31;;;;;;;7.53;3.72;;;;;;;;;;6266522;28;20399;-75
2023/03/23 14:48:31;;;;;;;8.00;4.30;;;;;;;;;;6265128;28;20024;-75
2023/03/23 14:51:31;;;;;;;7.93;3.77;;;;;;;;;;6266196;28;20124;-74
2023/03/23 14:54:32;;;;;;;8.43;3.67;;;;;;;;;;6250407;28;20017;-75
2023/03/23 14:57:33;;;;;;;11.10;4.78;;;;;;;;;;6266512;28;20028;-75
2023/03/23 15:00:35;;;;;;;7.33;5.73;;;;;;;;;;6265511;28;20017;-75
2023/03/23 15:03:43;;;;;;;7.95;4.40;;;;;;;;;;6266198;28;20017;-74
2023/03/23 15:06:45;;;;;;;10.90;4.15;;;;;;;;;;6266300;28;20128;-75
2023/03/23 15:09:46;;;;;;;8.63;3.88;;;;;;;;;;6264827;28;20116;-75
2023/03/23 15:12:48;;;;;;;15.38;5.13;;;;;;;;;;6265704;28;20029;-75
2023/03/23 15:15:48;;;;;;;8.13;4.95;;;;;;;;;;6265162;28;20626;-75
2023/03/23 15:18:58;;;;;;;9.57;4.00;;;;;;;;;;6264557;28;20017;-73
2023/03/23 15:22:07;;;;;;;8.57;4.32;;;;;;;;;;6263199;28;20021;-75
2023/03/23 15:25:07;;;;;;;10.00;5.38;;;;;;;;;;6260356;28;20063;-75
2023/03/23 15:28:14;;;;;;;8.70;4.55;;;;;;;;;;6265703;28;20489;-75
2023/03/23 15:31:14;;;;;;;13.88;5.75;;;;;;;;;;6255381;28;20021;-75
2023/03/23 15:34:26;;;;;;;7.93;4.70;;;;;;;;;;6260851;28;20032;-75
2023/03/23 15:37:32;;;;;;;10.88;5.32;;;;;;;;;;6259603;28;20120;-75
2023/03/23 15:40:34;;;;;;;12.75;5.40;;;;;;;;;;6242846;28;20483;-75
2023/03/23 15:43:35;;;;;;;15.20;7.82;;;;;;;;;;6264478;28;20388;-75
2023/03/23 15:46:35;;;;;;;17.20;5.93;;;;;;;;;;6246003;28;20025;-75
2023/03/23 15:49:36;;;;;;;9.87;4.87;;;;;;;;;;6262619;28;20473;-75
2023/03/23 15:52:36;;;;;;;13.37;5.97;;;;;;;;;;6263129;28;20052;-75
2023/03/23 15:55:37;;;;;;;9.93;5.43;;;;;;;;;;6259937;28;20056;-75
2023/03/23 15:58:38;;;;;;;9.50;5.20;;;;;;;;;;6263886;28;20024;-75
2023/03/23 16:01:39;;;;;;;12.68;6.95;;;;;;;;;;6263945;28;20025;-74
2023/03/23 16:04:40;;;;;;;12.35;5.68;;;;;;;;;;6265160;28;20075;-74
2023/03/23 16:07:40;;;;;;;12.93;5.77;;;;;;;;;;6244492;28;20494;-74
2023/03/23 16:10:40;;;;;;;17.17;6.77;;;;;;;;;;6264351;28;20058;-74
2023/03/23 16:13:41;;;;;;;11.43;5.93;;;;;;;;;;6262216;28;20017;-74
2023/03/23 16:16:42;;;;;;;15.37;6.67;;;;;;;;;;6262870;28;20112;-74
2023/03/23 16:19:43;;;;;;;17.67;8.40;;;;;;;;;;6264791;28;20021;-74
2023/03/23 16:22:44;;;;;;;12.10;5.97;;;;;;;;;;6264709;28;20161;-75
2023/03/23 16:25:44;;;;;;;16.97;7.97;;;;;;;;;;6261938;28;20037;-75
2023/03/23 16:28:44;;;;;;;15.27;7.73;;;;;;;;;;6261940;28;20055;-75
2023/03/23 16:31:45;;;;;;;12.63;5.17;;;;;;;;;;6244793;28;20075;-75
2023/03/23 16:34:46;;;;;;;11.43;4.73;;;;;;;;;;6261964;28;20479;-75
2023/03/23 16:37:48;;;;;;;15.95;4.32;;;;;;;;;;6263095;28;20017;-75
2023/03/23 16:40:48;;;;;;;7.35;4.15;;;;;;;;;;6245447;28;20029;-75
2023/03/23 16:43:48;;;;;;;10.23;4.87;;;;;;;;;;6264105;28;20048;-75
2023/03/23 16:46:48;;;;;;;9.70;4.13;;;;;;;;;;6245546;28;20033;-75
2023/03/23 16:49:50;;;;;;;9.57;4.05;;;;;;;;;;6263722;28;20028;-75
2023/03/23 16:52:50;;;;;;;7.25;3.20;;;;;;;;;;6262316;28;20025;-75
2023/03/23 16:55:51;;;;;;;13.67;5.47;;;;;;;;;;6246150;28;20025;-73
2023/03/23 16:58:51;;;;;;;9.55;5.35;;;;;;;;;;6263405;28;20025;-75
2023/03/23 17:01:51;;;;;;;11.50;6.00;;;;;;;;;;6260034;28;20522;-74
2023/03/23 17:04:52;;;;;;;13.33;5.63;;;;;;;;;;6264791;28;20454;-74
2023/03/23 17:07:54;;;;;;;12.30;4.60;;;;;;;;;;6265277;28;20430;-74
2023/03/23 17:10:54;;;;;;;14.57;7.20;;;;;;;;;;6269121;28;20116;-74
2023/03/23 17:13:55;;;;;;;15.67;6.80;;;;;;;;;;6267234;28;20021;-74
2023/03/23 17:16:55;;;;;;;14.77;6.47;;;;;;;;;;6249953;28;20023;-75
2023/03/23 17:19:56;;;;;;;15.43;7.03;;;;;;;;;;6268056;28;20164;-75
2023/03/23 17:22:58;;;;;;;11.37;5.40;;;;;;;;;;6268252;28;20566;-75
2023/03/23 17:25:58;;;;;;;13.50;8.00;;;;;;;;;;6265343;28;20312;-75
2023/03/23 17:28:58;;;;;;;15.27;8.00;;;;;;;;;;6245301;28;20052;-74
2023/03/23 17:31:59;;;;;;;15.47;8.27;;;;;;;;;;6269092;28;20021;-74
2023/03/23 17:35:00;;;;;;;53.80;28.03;;;;;;;;;;6268448;28;20170;-74
2023/03/23 17:38:00;;;;;;;32.90;17.10;;;;;;;;;;6260470;28;20399;-74
2023/03/23 17:41:02;;;;;;;36.07;18.60;;;;;;;;;;6264704;28;20087;-75
2023/03/23 17:44:03;;;;;;;29.95;18.00;;;;;;;;;;6260259;28;20024;-76
2023/03/23 17:47:03;;;;;;;38.37;21.53;;;;;;;;;;6265839;28;20045;-76
2023/03/23 17:50:05;;;;;;;71.57;42.30;;;;;;;;;;6269679;28;20076;-75
2023/03/23 17:53:05;;;;;;;69.40;38.53;;;;;;;;;;6265232;28;20024;-75
2023/03/23 17:56:06;;;;;;;22.42;11.02;;;;;;;;;;6267665;28;20387;-76
2023/03/23 17:59:06;;;;;;;38.33;19.70;;;;;;;;;;6262087;28;20017;-74